sensor_id;sensor_type;location;lat;lon;timestamp;temperature;humidity
22035;DHT22;11181;51.002;4.356;2023-07-24T00:01:23;20.80;99.90
22035;DHT22;11181;51.002;4.356;2023-07-24T00:03:50;20.70;99.90
22035;DHT22;11181;51.002;4.356;2023-07-24T00:06:18;20.60;99.90
22035;DHT22;11181;51.002;4.356;2023-07-24T00:08:45;20.60;99.90
22035;DHT22;11181;51.002;4.356;2023-07-24T00:11:12;20.70;99.90
22035;DHT22;11181;51.002;4.356;2023-07-24T00:13:39;20.60;99.90
22035;DHT22;11181;51.002;4.356;2023-07-24T00:16:07;20.70;99.90
22035;DHT22;11181;51.002;4.356;2023-07-24T00:18:34;20.70;99.90
22035;DHT22;11181;51.002;4.356;2023-07-24T00:21:01;20.50;99.90
22035;DHT22;11181;51.002;4.356;2023-07-24T00:23:29;20.40;99.90
22035;DHT22;11181;51.002;4.356;2023-07-24T00:25:56;20.30;99.90
22035;DHT22;11181;51.002;4.356;2023-07-24T00:28:23;20.30;99.90
22035;DHT22;11181;51.002;4.356;2023-07-24T00:30:49;20.40;99.90
22035;DHT22;11181;51.002;4.356;2023-07-24T00:33:16;20.60;99.90
22035;DHT22;11181;51.002;4.356;2023-07-24T00:35:43;20.60;99.90
22035;DHT22;11181;51.002;4.356;2023-07-24T00:38:10;20.70;99.90
22035;DHT22;11181;51.002;4.356;2023-07-24T00:40:38;20.70;99.90
22035;DHT22;11181;51.002;4.356;2023-07-24T00:43:05;20.70;99.90
22035;DHT22;11181;51.002;4.356;2023-07-24T00:45:32;20.80;99.90
22035;DHT22;11181;51.002;4.356;2023-07-24T00:47:59;20.70;99.90
22035;DHT22;11181;51.002;4.356;2023-07-24T00:50:27;20.70;99.90
22035;DHT22;11181;51.002;4.356;2023-07-24T00:52:54;20.70;99.90
22035;DHT22;11181;51.002;4.356;2023-07-24T00:55:21;20.70;99.90
22035;DHT22;11181;51.002;4.356;2023-07-24T00:57:49;20.60;99.90
22035;DHT22;11181;51.002;4.356;2023-07-24T01:00:16;20.50;99.90
22035;DHT22;11181;51.002;4.356;2023-07-24T01:02:43;20.50;99.90
22035;DHT22;11181;51.002;4.356;2023-07-24T01:05:13;20.60;99.90
22035;DHT22;11181;51.002;4.356;2023-07-24T01:07:41;20.50;99.90
22035;DHT22;11181;51.002;4.356;2023-07-24T01:10:08;20.50;99.90
22035;DHT22;11181;51.002;4.356;2023-07-24T01:12:39;20.50;99.90
22035;DHT22;11181;51.002;4.356;2023-07-24T01:15:16;20.50;99.90
22035;DHT22;11181;51.002;4.356;2023-07-24T01:17:49;20.60;99.90
22035;DHT22;11181;51.002;4.356;2023-07-24T01:20:17;20.60;99.90
22035;DHT22;11181;51.002;4.356;2023-07-24T01:23:04;20.70;99.90
22035;DHT22;11181;51.002;4.356;2023-07-24T01:25:32;20.70;99.90
22035;DHT22;11181;51.002;4.356;2023-07-24T01:28:06;20.80;99.90
22035;DHT22;11181;51.002;4.356;2023-07-24T01:30:33;20.80;99.90
22035;DHT22;11181;51.002;4.356;2023-07-24T01:33:00;20.90;99.90
22035;DHT22;11181;51.002;4.356;2023-07-24T01:35:27;20.70;99.90
22035;DHT22;11181;51.002;4.356;2023-07-24T01:37:56;20.60;99.90
22035;DHT22;11181;51.002;4.356;2023-07-24T01:40:24;20.60;99.90
22035;DHT22;11181;51.002;4.356;2023-07-24T01:42:51;20.50;99.90
22035;DHT22;11181;51.002;4.356;2023-07-24T01:45:19;20.50;99.90
22035;DHT22;11181;51.002;4.356;2023-07-24T01:47:46;20.40;99.90
22035;DHT22;11181;51.002;4.356;2023-07-24T01:50:13;20.40;99.90
22035;DHT22;11181;51.002;4.356;2023-07-24T01:52:39;20.20;99.90
22035;DHT22;11181;51.002;4.356;2023-07-24T01:55:07;20.00;99.90
22035;DHT22;11181;51.002;4.356;2023-07-24T01:57:34;19.90;99.90
22035;DHT22;11181;51.002;4.356;2023-07-24T02:00:01;19.90;99.90
22035;DHT22;11181;51.002;4.356;2023-07-24T02:02:30;19.70;99.90
22035;DHT22;11181;51.002;4.356;2023-07-24T02:04:56;19.80;99.90
22035;DHT22;11181;51.002;4.356;2023-07-24T02:07:23;19.80;99.90
22035;DHT22;11181;51.002;4.356;2023-07-24T02:09:50;19.80;99.90
22035;DHT22;11181;51.002;4.356;2023-07-24T02:12:17;19.80;99.90
22035;DHT22;11181;51.002;4.356;2023-07-24T02:14:44;19.90;99.90
22035;DHT22;11181;51.002;4.356;2023-07-24T02:17:13;19.90;99.90
22035;DHT22;11181;51.002;4.356;2023-07-24T02:19:42;19.90;99.90
22035;DHT22;11181;51.002;4.356;2023-07-24T02:22:08;20.00;99.90
22035;DHT22;11181;51.002;4.356;2023-07-24T02:24:35;20.00;99.90
22035;DHT22;11181;51.002;4.356;2023-07-24T02:27:04;20.00;99.90
22035;DHT22;11181;51.002;4.356;2023-07-24T02:29:31;20.00;99.90
22035;DHT22;11181;51.002;4.356;2023-07-24T02:31:59;20.10;99.90
22035;DHT22;11181;51.002;4.356;2023-07-24T02:34:25;20.00;99.90
22035;DHT22;11181;51.002;4.356;2023-07-24T02:36:55;20.00;99.90
22035;DHT22;11181;51.002;4.356;2023-07-24T02:39:22;19.90;99.90
22035;DHT22;11181;51.002;4.356;2023-07-24T02:41:49;20.00;99.90
22035;DHT22;11181;51.002;4.356;2023-07-24T02:44:16;20.10;99.90
22035;DHT22;11181;51.002;4.356;2023-07-24T02:46:42;20.10;99.90
22035;DHT22;11181;51.002;4.356;2023-07-24T02:49:09;20.20;99.90
22035;DHT22;11181;51.002;4.356;2023-07-24T02:51:36;20.20;99.90
22035;DHT22;11181;51.002;4.356;2023-07-24T02:54:04;20.20;99.90
22035;DHT22;11181;51.002;4.356;2023-07-24T02:56:31;20.20;99.90
22035;DHT22;11181;51.002;4.356;2023-07-24T02:58:58;20.20;99.90
22035;DHT22;11181;51.002;4.356;2023-07-24T03:01:25;20.20;99.90
22035;DHT22;11181;51.002;4.356;2023-07-24T03:03:52;20.20;99.90
22035;DHT22;11181;51.002;4.356;2023-07-24T03:06:19;20.20;99.90
22035;DHT22;11181;51.002;4.356;2023-07-24T03:08:47;20.10;99.90
22035;DHT22;11181;51.002;4.356;2023-07-24T03:11:15;19.90;99.90
22035;DHT22;11181;51.002;4.356;2023-07-24T03:13:42;19.90;99.90
22035;DHT22;11181;51.002;4.356;2023-07-24T03:16:09;19.60;99.90
22035;DHT22;11181;51.002;4.356;2023-07-24T03:18:35;19.40;99.90
22035;DHT22;11181;51.002;4.356;2023-07-24T03:21:03;19.40;99.90
22035;DHT22;11181;51.002;4.356;2023-07-24T03:23:30;19.30;99.90
22035;DHT22;11181;51.002;4.356;2023-07-24T03:25:57;19.10;99.90
22035;DHT22;11181;51.002;4.356;2023-07-24T03:28:25;19.00;99.90
22035;DHT22;11181;51.002;4.356;2023-07-24T03:30:52;19.00;99.90
22035;DHT22;11181;51.002;4.356;2023-07-24T03:33:20;18.80;99.90
22035;DHT22;11181;51.002;4.356;2023-07-24T03:35:47;18.90;99.90
22035;DHT22;11181;51.002;4.356;2023-07-24T03:38:14;18.80;99.90
22035;DHT22;11181;51.002;4.356;2023-07-24T03:40:41;18.90;99.90
22035;DHT22;11181;51.002;4.356;2023-07-24T03:43:08;18.80;99.90
22035;DHT22;11181;51.002;4.356;2023-07-24T03:45:36;18.90;99.90
22035;DHT22;11181;51.002;4.356;2023-07-24T03:48:03;18.90;99.90
22035;DHT22;11181;51.002;4.356;2023-07-24T03:50:30;19.00;99.90
22035;DHT22;11181;51.002;4.356;2023-07-24T03:52:57;19.00;99.90
22035;DHT22;11181;51.002;4.356;2023-07-24T03:55:24;19.00;99.90
22035;DHT22;11181;51.002;4.356;2023-07-24T03:57:50;18.90;99.90
22035;DHT22;11181;51.002;4.356;2023-07-24T04:00:17;18.90;99.90
22035;DHT22;11181;51.002;4.356;2023-07-24T04:02:46;18.80;99.90
22035;DHT22;11181;51.002;4.356;2023-07-24T04:05:13;18.80;99.90
22035;DHT22;11181;51.002;4.356;2023-07-24T04:07:40;18.90;99.90
22035;DHT22;11181;51.002;4.356;2023-07-24T04:10:08;18.90;99.90
22035;DHT22;11181;51.002;4.356;2023-07-24T04:12:35;18.80;99.90
22035;DHT22;11181;51.002;4.356;2023-07-24T04:15:02;18.80;99.90
22035;DHT22;11181;51.002;4.356;2023-07-24T04:17:29;18.80;99.90
22035;DHT22;11181;51.002;4.356;2023-07-24T04:19:57;18.80;99.90
22035;DHT22;11181;51.002;4.356;2023-07-24T04:22:24;18.70;99.90
22035;DHT22;11181;51.002;4.356;2023-07-24T04:24:51;18.70;99.90
22035;DHT22;11181;51.002;4.356;2023-07-24T04:27:18;18.70;99.90
22035;DHT22;11181;51.002;4.356;2023-07-24T04:29:45;18.80;99.90
22035;DHT22;11181;51.002;4.356;2023-07-24T04:32:12;18.80;99.90
22035;DHT22;11181;51.002;4.356;2023-07-24T04:34:39;19.00;99.90
22035;DHT22;11181;51.002;4.356;2023-07-24T04:37:07;19.00;99.90
22035;DHT22;11181;51.002;4.356;2023-07-24T04:39:34;19.10;99.90
22035;DHT22;11181;51.002;4.356;2023-07-24T04:42:02;19.10;99.90
22035;DHT22;11181;51.002;4.356;2023-07-24T04:44:29;19.20;99.90
22035;DHT22;11181;51.002;4.356;2023-07-24T04:46:57;19.20;99.90
22035;DHT22;11181;51.002;4.356;2023-07-24T04:49:24;19.30;99.90
22035;DHT22;11181;51.002;4.356;2023-07-24T04:51:51;19.40;99.90
22035;DHT22;11181;51.002;4.356;2023-07-24T04:54:19;19.40;99.90
22035;DHT22;11181;51.002;4.356;2023-07-24T04:56:46;19.30;99.90
22035;DHT22;11181;51.002;4.356;2023-07-24T04:59:13;19.30;99.90
22035;DHT22;11181;51.002;4.356;2023-07-24T05:01:40;19.20;99.90
22035;DHT22;11181;51.002;4.356;2023-07-24T05:04:07;19.20;99.90
22035;DHT22;11181;51.002;4.356;2023-07-24T05:06:33;19.20;99.90
22035;DHT22;11181;51.002;4.356;2023-07-24T05:09:02;19.20;99.90
22035;DHT22;11181;51.002;4.356;2023-07-24T05:11:31;19.20;99.90
22035;DHT22;11181;51.002;4.356;2023-07-24T05:13:58;19.30;99.90
22035;DHT22;11181;51.002;4.356;2023-07-24T05:16:24;19.30;99.90
22035;DHT22;11181;51.002;4.356;2023-07-24T05:18:51;19.20;99.90
22035;DHT22;11181;51.002;4.356;2023-07-24T05:21:18;19.30;99.90
22035;DHT22;11181;51.002;4.356;2023-07-24T05:23:45;19.40;99.90
22035;DHT22;11181;51.002;4.356;2023-07-24T05:26:12;19.30;99.90
22035;DHT22;11181;51.002;4.356;2023-07-24T05:28:40;19.10;99.90
22035;DHT22;11181;51.002;4.356;2023-07-24T05:31:07;19.10;99.90
22035;DHT22;11181;51.002;4.356;2023-07-24T05:33:34;19.00;99.90
22035;DHT22;11181;51.002;4.356;2023-07-24T05:36:02;19.10;99.90
22035;DHT22;11181;51.002;4.356;2023-07-24T05:38:30;19.20;99.90
22035;DHT22;11181;51.002;4.356;2023-07-24T05:40:57;19.10;99.90
22035;DHT22;11181;51.002;4.356;2023-07-24T05:43:24;19.20;99.90
22035;DHT22;11181;51.002;4.356;2023-07-24T05:45:53;19.10;99.90
22035;DHT22;11181;51.002;4.356;2023-07-24T05:48:21;19.20;99.90
22035;DHT22;11181;51.002;4.356;2023-07-24T05:50:48;19.20;99.90
22035;DHT22;11181;51.002;4.356;2023-07-24T05:53:15;19.20;99.90
22035;DHT22;11181;51.002;4.356;2023-07-24T05:55:42;19.30;99.90
22035;DHT22;11181;51.002;4.356;2023-07-24T05:58:09;19.30;99.90
22035;DHT22;11181;51.002;4.356;2023-07-24T06:00:36;19.30;99.90
22035;DHT22;11181;51.002;4.356;2023-07-24T06:03:05;19.30;99.90
22035;DHT22;11181;51.002;4.356;2023-07-24T06:05:32;19.40;99.90
22035;DHT22;11181;51.002;4.356;2023-07-24T06:07:58;19.40;99.90
22035;DHT22;11181;51.002;4.356;2023-07-24T06:10:25;19.40;99.90
22035;DHT22;11181;51.002;4.356;2023-07-24T06:12:52;19.30;99.90
22035;DHT22;11181;51.002;4.356;2023-07-24T06:15:19;19.40;99.90
22035;DHT22;11181;51.002;4.356;2023-07-24T06:17:46;19.40;99.90
22035;DHT22;11181;51.002;4.356;2023-07-24T06:20:14;19.50;99.90
22035;DHT22;11181;51.002;4.356;2023-07-24T06:22:41;19.60;99.90
22035;DHT22;11181;51.002;4.356;2023-07-24T06:25:08;19.70;99.90
22035;DHT22;11181;51.002;4.356;2023-07-24T06:27:35;19.70;99.90
22035;DHT22;11181;51.002;4.356;2023-07-24T06:30:02;19.70;99.90
22035;DHT22;11181;51.002;4.356;2023-07-24T06:32:29;19.60;99.90
22035;DHT22;11181;51.002;4.356;2023-07-24T06:34:56;19.70;99.90
22035;DHT22;11181;51.002;4.356;2023-07-24T06:37:24;19.60;99.90
22035;DHT22;11181;51.002;4.356;2023-07-24T06:39:51;19.50;99.90
22035;DHT22;11181;51.002;4.356;2023-07-24T06:42:18;19.60;99.90
22035;DHT22;11181;51.002;4.356;2023-07-24T06:44:45;19.60;99.90
22035;DHT22;11181;51.002;4.356;2023-07-24T06:47:12;19.60;99.90
22035;DHT22;11181;51.002;4.356;2023-07-24T06:49:39;19.70;99.90
22035;DHT22;11181;51.002;4.356;2023-07-24T06:52:06;19.50;99.90
22035;DHT22;11181;51.002;4.356;2023-07-24T06:54:34;19.50;99.90
22035;DHT22;11181;51.002;4.356;2023-07-24T06:57:01;19.50;99.90
22035;DHT22;11181;51.002;4.356;2023-07-24T06:59:28;19.50;99.90
22035;DHT22;11181;51.002;4.356;2023-07-24T07:01:55;19.60;99.90
22035;DHT22;11181;51.002;4.356;2023-07-24T07:04:22;19.60;99.90
22035;DHT22;11181;51.002;4.356;2023-07-24T07:06:49;19.70;99.90
22035;DHT22;11181;51.002;4.356;2023-07-24T07:09:16;19.70;99.90
22035;DHT22;11181;51.002;4.356;2023-07-24T07:11:44;19.70;99.90
22035;DHT22;11181;51.002;4.356;2023-07-24T07:14:11;19.70;99.90
22035;DHT22;11181;51.002;4.356;2023-07-24T07:16:38;19.60;99.90
22035;DHT22;11181;51.002;4.356;2023-07-24T07:19:06;19.60;99.90
22035;DHT22;11181;51.002;4.356;2023-07-24T07:21:34;19.50;99.90
22035;DHT22;11181;51.002;4.356;2023-07-24T07:24:01;19.50;99.90
22035;DHT22;11181;51.002;4.356;2023-07-24T07:26:28;19.50;99.90
22035;DHT22;11181;51.002;4.356;2023-07-24T07:28:57;19.60;99.90
22035;DHT22;11181;51.002;4.356;2023-07-24T07:31:24;19.70;99.90
22035;DHT22;11181;51.002;4.356;2023-07-24T07:33:51;19.70;99.90
22035;DHT22;11181;51.002;4.356;2023-07-24T07:36:18;19.90;99.90
22035;DHT22;11181;51.002;4.356;2023-07-24T07:38:44;20.10;99.90
22035;DHT22;11181;51.002;4.356;2023-07-24T07:41:11;20.30;99.90
22035;DHT22;11181;51.002;4.356;2023-07-24T07:43:38;20.40;99.90
22035;DHT22;11181;51.002;4.356;2023-07-24T07:46:06;20.40;99.90
22035;DHT22;11181;51.002;4.356;2023-07-24T07:48:33;20.50;99.90
22035;DHT22;11181;51.002;4.356;2023-07-24T07:51:00;20.60;99.90
22035;DHT22;11181;51.002;4.356;2023-07-24T07:53:27;20.60;99.90
22035;DHT22;11181;51.002;4.356;2023-07-24T07:55:57;20.70;99.90
22035;DHT22;11181;51.002;4.356;2023-07-24T07:58:25;20.80;99.90
22035;DHT22;11181;51.002;4.356;2023-07-24T08:00:52;20.90;99.90
22035;DHT22;11181;51.002;4.356;2023-07-24T08:03:20;20.90;99.90
22035;DHT22;11181;51.002;4.356;2023-07-24T08:05:47;21.00;99.90
22035;DHT22;11181;51.002;4.356;2023-07-24T08:08:14;20.90;99.90
22035;DHT22;11181;51.002;4.356;2023-07-24T08:10:41;20.90;99.90
22035;DHT22;11181;51.002;4.356;2023-07-24T08:13:07;20.80;99.90
22035;DHT22;11181;51.002;4.356;2023-07-24T08:15:35;20.70;99.90
22035;DHT22;11181;51.002;4.356;2023-07-24T08:18:03;20.60;99.90
22035;DHT22;11181;51.002;4.356;2023-07-24T08:20:32;20.60;99.90
22035;DHT22;11181;51.002;4.356;2023-07-24T08:23:01;20.70;99.90
22035;DHT22;11181;51.002;4.356;2023-07-24T08:25:28;20.60;99.90
22035;DHT22;11181;51.002;4.356;2023-07-24T08:27:55;20.60;99.90
22035;DHT22;11181;51.002;4.356;2023-07-24T08:30:22;20.60;99.90
22035;DHT22;11181;51.002;4.356;2023-07-24T08:32:49;20.60;99.90
22035;DHT22;11181;51.002;4.356;2023-07-24T08:35:16;20.70;99.90
22035;DHT22;11181;51.002;4.356;2023-07-24T08:37:45;20.70;99.90
22035;DHT22;11181;51.002;4.356;2023-07-24T08:40:12;20.80;99.90
22035;DHT22;11181;51.002;4.356;2023-07-24T08:42:39;20.90;99.90
22035;DHT22;11181;51.002;4.356;2023-07-24T08:45:11;21.00;99.90
22035;DHT22;11181;51.002;4.356;2023-07-24T08:47:41;21.10;99.90
22035;DHT22;11181;51.002;4.356;2023-07-24T08:50:09;21.20;99.90
22035;DHT22;11181;51.002;4.356;2023-07-24T08:52:36;21.30;99.90
22035;DHT22;11181;51.002;4.356;2023-07-24T08:55:05;21.20;99.90
22035;DHT22;11181;51.002;4.356;2023-07-24T08:57:33;21.20;99.90
22035;DHT22;11181;51.002;4.356;2023-07-24T09:00:00;21.20;99.90
22035;DHT22;11181;51.002;4.356;2023-07-24T09:02:30;21.20;99.90
22035;DHT22;11181;51.002;4.356;2023-07-24T09:04:57;21.00;99.90
22035;DHT22;11181;51.002;4.356;2023-07-24T09:07:24;20.90;99.90
22035;DHT22;11181;51.002;4.356;2023-07-24T09:09:51;20.90;99.90
22035;DHT22;11181;51.002;4.356;2023-07-24T09:12:22;20.80;99.90
22035;DHT22;11181;51.002;4.356;2023-07-24T09:14:49;20.70;99.90
22035;DHT22;11181;51.002;4.356;2023-07-24T09:17:16;20.60;99.90
22035;DHT22;11181;51.002;4.356;2023-07-24T09:19:43;20.60;99.90
22035;DHT22;11181;51.002;4.356;2023-07-24T09:22:11;20.60;99.90
22035;DHT22;11181;51.002;4.356;2023-07-24T09:24:49;20.70;99.90
22035;DHT22;11181;51.002;4.356;2023-07-24T09:27:16;20.80;99.90
22035;DHT22;11181;51.002;4.356;2023-07-24T09:29:46;21.00;99.90
22035;DHT22;11181;51.002;4.356;2023-07-24T09:32:19;21.20;99.90
22035;DHT22;11181;51.002;4.356;2023-07-24T09:34:47;21.30;99.90
22035;DHT22;11181;51.002;4.356;2023-07-24T09:37:23;21.30;99.90
22035;DHT22;11181;51.002;4.356;2023-07-24T09:39:50;21.20;99.90
22035;DHT22;11181;51.002;4.356;2023-07-24T09:42:17;21.20;99.90
22035;DHT22;11181;51.002;4.356;2023-07-24T09:44:46;21.20;99.90
22035;DHT22;11181;51.002;4.356;2023-07-24T09:47:12;21.20;99.90
22035;DHT22;11181;51.002;4.356;2023-07-24T09:49:39;21.30;99.90
22035;DHT22;11181;51.002;4.356;2023-07-24T09:52:09;21.50;99.90
22035;DHT22;11181;51.002;4.356;2023-07-24T09:54:42;21.60;99.90
22035;DHT22;11181;51.002;4.356;2023-07-24T09:57:13;21.70;99.90
22035;DHT22;11181;51.002;4.356;2023-07-24T09:59:40;21.70;99.90
22035;DHT22;11181;51.002;4.356;2023-07-24T10:02:11;21.70;99.90
22035;DHT22;11181;51.002;4.356;2023-07-24T10:04:40;21.70;99.90
22035;DHT22;11181;51.002;4.356;2023-07-24T10:07:07;21.70;99.90
22035;DHT22;11181;51.002;4.356;2023-07-24T10:09:34;21.50;99.90
22035;DHT22;11181;51.002;4.356;2023-07-24T10:12:03;21.30;99.90
22035;DHT22;11181;51.002;4.356;2023-07-24T10:14:30;21.30;99.90
22035;DHT22;11181;51.002;4.356;2023-07-24T10:16:57;21.30;99.90
22035;DHT22;11181;51.002;4.356;2023-07-24T10:19:35;21.30;99.90
22035;DHT22;11181;51.002;4.356;2023-07-24T10:22:02;21.40;99.90
22035;DHT22;11181;51.002;4.356;2023-07-24T10:24:29;21.30;99.90
22035;DHT22;11181;51.002;4.356;2023-07-24T10:26:56;21.20;99.90
22035;DHT22;11181;51.002;4.356;2023-07-24T10:29:24;21.20;99.90
22035;DHT22;11181;51.002;4.356;2023-07-24T10:31:54;21.40;99.90
22035;DHT22;11181;51.002;4.356;2023-07-24T10:34:21;21.90;99.90
22035;DHT22;11181;51.002;4.356;2023-07-24T10:36:49;22.40;99.90
22035;DHT22;11181;51.002;4.356;2023-07-24T10:39:17;22.70;99.90
22035;DHT22;11181;51.002;4.356;2023-07-24T10:41:46;22.80;99.90
22035;DHT22;11181;51.002;4.356;2023-07-24T10:44:13;23.10;99.90
22035;DHT22;11181;51.002;4.356;2023-07-24T10:46:41;23.30;99.90
22035;DHT22;11181;51.002;4.356;2023-07-24T10:49:09;23.30;99.90
22035;DHT22;11181;51.002;4.356;2023-07-24T10:51:36;23.20;99.90
22035;DHT22;11181;51.002;4.356;2023-07-24T10:54:05;23.10;99.90
22035;DHT22;11181;51.002;4.356;2023-07-24T10:56:32;22.90;99.90
22035;DHT22;11181;51.002;4.356;2023-07-24T10:59:03;22.60;99.90
22035;DHT22;11181;51.002;4.356;2023-07-24T11:01:31;22.20;99.90
22035;DHT22;11181;51.002;4.356;2023-07-24T11:03:58;21.80;99.90
22035;DHT22;11181;51.002;4.356;2023-07-24T11:06:26;21.80;99.90
22035;DHT22;11181;51.002;4.356;2023-07-24T11:08:54;21.80;99.90
22035;DHT22;11181;51.002;4.356;2023-07-24T11:11:27;21.90;99.90
22035;DHT22;11181;51.002;4.356;2023-07-24T11:13:57;21.90;99.90
22035;DHT22;11181;51.002;4.356;2023-07-24T11:16:25;21.90;99.90
22035;DHT22;11181;51.002;4.356;2023-07-24T11:18:52;21.80;99.90
22035;DHT22;11181;51.002;4.356;2023-07-24T11:21:22;21.70;99.90
22035;DHT22;11181;51.002;4.356;2023-07-24T11:23:50;21.70;99.90
22035;DHT22;11181;51.002;4.356;2023-07-24T11:26:19;21.70;99.90
22035;DHT22;11181;51.002;4.356;2023-07-24T11:28:48;21.80;99.90
22035;DHT22;11181;51.002;4.356;2023-07-24T11:31:15;22.00;99.90
22035;DHT22;11181;51.002;4.356;2023-07-24T11:33:46;22.30;99.90
22035;DHT22;11181;51.002;4.356;2023-07-24T11:36:13;22.40;99.90
22035;DHT22;11181;51.002;4.356;2023-07-24T11:38:40;22.60;99.90
22035;DHT22;11181;51.002;4.356;2023-07-24T11:41:08;22.80;99.90
22035;DHT22;11181;51.002;4.356;2023-07-24T11:43:35;23.20;99.90
22035;DHT22;11181;51.002;4.356;2023-07-24T11:46:03;23.50;99.90
22035;DHT22;11181;51.002;4.356;2023-07-24T11:48:30;23.70;99.90
22035;DHT22;11181;51.002;4.356;2023-07-24T11:50:57;23.80;99.90
22035;DHT22;11181;51.002;4.356;2023-07-24T11:53:26;24.00;99.90
22035;DHT22;11181;51.002;4.356;2023-07-24T11:55:54;24.20;99.90
22035;DHT22;11181;51.002;4.356;2023-07-24T11:58:22;24.20;99.90
22035;DHT22;11181;51.002;4.356;2023-07-24T12:00:49;24.20;99.90
22035;DHT22;11181;51.002;4.356;2023-07-24T12:03:21;24.10;99.90
22035;DHT22;11181;51.002;4.356;2023-07-24T12:05:48;24.10;99.90
22035;DHT22;11181;51.002;4.356;2023-07-24T12:08:16;24.10;99.90
22035;DHT22;11181;51.002;4.356;2023-07-24T12:10:44;24.30;99.90
22035;DHT22;11181;51.002;4.356;2023-07-24T12:13:12;24.50;99.90
22035;DHT22;11181;51.002;4.356;2023-07-24T12:15:39;24.60;99.90
22035;DHT22;11181;51.002;4.356;2023-07-24T12:18:06;24.80;99.90
22035;DHT22;11181;51.002;4.356;2023-07-24T12:20:35;25.00;99.90
22035;DHT22;11181;51.002;4.356;2023-07-24T12:23:02;24.90;99.90
22035;DHT22;11181;51.002;4.356;2023-07-24T12:25:29;24.60;99.90
22035;DHT22;11181;51.002;4.356;2023-07-24T12:27:56;24.40;99.90
22035;DHT22;11181;51.002;4.356;2023-07-24T12:30:23;24.10;99.90
22035;DHT22;11181;51.002;4.356;2023-07-24T12:32:50;24.00;99.90
22035;DHT22;11181;51.002;4.356;2023-07-24T12:35:17;23.90;99.90
22035;DHT22;11181;51.002;4.356;2023-07-24T12:37:46;23.90;99.90
22035;DHT22;11181;51.002;4.356;2023-07-24T12:40:13;23.80;99.90
22035;DHT22;11181;51.002;4.356;2023-07-24T12:42:40;23.70;99.90
22035;DHT22;11181;51.002;4.356;2023-07-24T12:45:07;23.80;99.90
22035;DHT22;11181;51.002;4.356;2023-07-24T12:47:34;23.90;99.90
22035;DHT22;11181;51.002;4.356;2023-07-24T12:50:01;23.80;99.90
22035;DHT22;11181;51.002;4.356;2023-07-24T12:52:29;24.00;99.90
22035;DHT22;11181;51.002;4.356;2023-07-24T12:54:57;24.30;99.90
22035;DHT22;11181;51.002;4.356;2023-07-24T12:57:24;24.50;99.90
22035;DHT22;11181;51.002;4.356;2023-07-24T12:59:52;24.50;99.90
22035;DHT22;11181;51.002;4.356;2023-07-24T13:02:19;24.50;99.90
22035;DHT22;11181;51.002;4.356;2023-07-24T13:04:45;24.70;99.90
22035;DHT22;11181;51.002;4.356;2023-07-24T13:07:12;24.70;99.90
22035;DHT22;11181;51.002;4.356;2023-07-24T13:09:39;24.50;99.90
22035;DHT22;11181;51.002;4.356;2023-07-24T13:12:09;24.40;99.90
22035;DHT22;11181;51.002;4.356;2023-07-24T13:14:36;24.40;99.90
22035;DHT22;11181;51.002;4.356;2023-07-24T13:17:03;24.50;99.90
22035;DHT22;11181;51.002;4.356;2023-07-24T13:19:30;24.70;99.90
22035;DHT22;11181;51.002;4.356;2023-07-24T13:21:57;24.90;99.90
22035;DHT22;11181;51.002;4.356;2023-07-24T13:24:24;25.10;99.90
22035;DHT22;11181;51.002;4.356;2023-07-24T13:26:51;25.20;99.90
22035;DHT22;11181;51.002;4.356;2023-07-24T13:29:19;25.00;99.90
22035;DHT22;11181;51.002;4.356;2023-07-24T13:31:46;24.90;99.90
22035;DHT22;11181;51.002;4.356;2023-07-24T13:34:13;24.80;99.90
22035;DHT22;11181;51.002;4.356;2023-07-24T13:36:40;24.60;99.90
22035;DHT22;11181;51.002;4.356;2023-07-24T13:39:07;24.50;99.90
22035;DHT22;11181;51.002;4.356;2023-07-24T13:41:33;24.70;99.90
22035;DHT22;11181;51.002;4.356;2023-07-24T13:44:01;24.80;99.90
22035;DHT22;11181;51.002;4.356;2023-07-24T13:46:29;24.60;99.90
22035;DHT22;11181;51.002;4.356;2023-07-24T13:48:56;24.60;99.90
22035;DHT22;11181;51.002;4.356;2023-07-24T13:51:23;24.60;99.90
22035;DHT22;11181;51.002;4.356;2023-07-24T13:53:50;24.40;99.90
22035;DHT22;11181;51.002;4.356;2023-07-24T13:56:19;24.40;99.90
22035;DHT22;11181;51.002;4.356;2023-07-24T13:58:48;24.30;99.90
22035;DHT22;11181;51.002;4.356;2023-07-24T14:01:14;24.30;99.90
22035;DHT22;11181;51.002;4.356;2023-07-24T14:03:43;24.30;99.90
22035;DHT22;11181;51.002;4.356;2023-07-24T14:06:10;23.90;99.90
22035;DHT22;11181;51.002;4.356;2023-07-24T14:08:37;23.20;99.90
22035;DHT22;11181;51.002;4.356;2023-07-24T14:11:04;22.90;99.90
22035;DHT22;11181;51.002;4.356;2023-07-24T14:13:31;22.90;99.90
22035;DHT22;11181;51.002;4.356;2023-07-24T14:15:57;22.60;99.90
22035;DHT22;11181;51.002;4.356;2023-07-24T14:18:24;22.40;99.90
22035;DHT22;11181;51.002;4.356;2023-07-24T14:20:53;22.10;99.90
22035;DHT22;11181;51.002;4.356;2023-07-24T14:23:21;21.90;99.90
22035;DHT22;11181;51.002;4.356;2023-07-24T14:25:48;21.70;99.90
22035;DHT22;11181;51.002;4.356;2023-07-24T14:28:16;21.80;99.90
22035;DHT22;11181;51.002;4.356;2023-07-24T14:30:43;21.80;99.90
22035;DHT22;11181;51.002;4.356;2023-07-24T14:33:10;21.80;99.90
22035;DHT22;11181;51.002;4.356;2023-07-24T14:35:37;21.80;99.90
22035;DHT22;11181;51.002;4.356;2023-07-24T14:38:05;21.70;99.90
22035;DHT22;11181;51.002;4.356;2023-07-24T14:40:32;21.60;99.90
22035;DHT22;11181;51.002;4.356;2023-07-24T14:42:59;21.30;99.90
22035;DHT22;11181;51.002;4.356;2023-07-24T14:45:26;21.10;99.90
22035;DHT22;11181;51.002;4.356;2023-07-24T14:47:53;20.90;99.90
22035;DHT22;11181;51.002;4.356;2023-07-24T14:50:20;20.80;99.90
22035;DHT22;11181;51.002;4.356;2023-07-24T14:52:47;20.40;99.90
22035;DHT22;11181;51.002;4.356;2023-07-24T14:55:15;20.20;99.90
22035;DHT22;11181;51.002;4.356;2023-07-24T14:57:42;20.00;99.90
22035;DHT22;11181;51.002;4.356;2023-07-24T15:00:10;20.10;99.90
22035;DHT22;11181;51.002;4.356;2023-07-24T15:02:37;20.10;99.90
22035;DHT22;11181;51.002;4.356;2023-07-24T15:05:05;20.20;99.90
22035;DHT22;11181;51.002;4.356;2023-07-24T15:07:32;20.30;99.90
22035;DHT22;11181;51.002;4.356;2023-07-24T15:09:58;20.20;99.90
22035;DHT22;11181;51.002;4.356;2023-07-24T15:12:27;20.30;99.90
22035;DHT22;11181;51.002;4.356;2023-07-24T15:14:54;20.40;99.90
22035;DHT22;11181;51.002;4.356;2023-07-24T15:17:20;20.40;99.90
22035;DHT22;11181;51.002;4.356;2023-07-24T15:19:47;20.50;99.90
22035;DHT22;11181;51.002;4.356;2023-07-24T15:22:14;20.40;99.90
22035;DHT22;11181;51.002;4.356;2023-07-24T15:24:41;20.40;99.90
22035;DHT22;11181;51.002;4.356;2023-07-24T15:27:09;20.60;99.90
22035;DHT22;11181;51.002;4.356;2023-07-24T15:29:37;20.80;99.90
22035;DHT22;11181;51.002;4.356;2023-07-24T15:32:05;21.00;99.90